createdAt,value
2017-12-03T00:01:54.111Z,73.10
2017-12-03T00:04:21.008Z,72.80
2017-12-03T00:06:47.897Z,72.60
2017-12-03T00:09:14.853Z,72.60
2017-12-03T00:11:42.205Z,73.00
2017-12-03T00:14:09.089Z,73.00
2017-12-03T00:16:36.021Z,72.80
2017-12-03T00:19:02.896Z,73.20
2017-12-03T00:21:29.884Z,73.20
2017-12-03T00:23:56.822Z,73.20
2017-12-03T00:26:23.705Z,73.70
2017-12-03T00:28:50.580Z,74.40
2017-12-03T00:31:17.493Z,74.40
2017-12-03T00:33:44.413Z,74.00
2017-12-03T00:36:11.764Z,73.00
2017-12-03T00:38:38.713Z,73.00
2017-12-03T00:41:05.661Z,73.80
2017-12-03T00:43:32.605Z,73.70
2017-12-03T00:45:59.509Z,73.90
2017-12-03T00:48:26.497Z,74.00
2017-12-03T00:50:53.449Z,74.80
2017-12-03T00:53:20.366Z,74.60
2017-12-03T00:55:47.336Z,73.90
2017-12-03T00:58:14.245Z,73.90
2017-12-03T01:00:41.153Z,73.20
2017-12-03T01:03:08.453Z,72.90
2017-12-03T01:05:35.430Z,72.90
2017-12-03T01:08:02.384Z,73.50
2017-12-03T01:10:29.326Z,73.50
2017-12-03T01:12:56.209Z,73.30
2017-12-03T01:15:23.221Z,71.90
2017-12-03T01:17:50.166Z,71.20
2017-12-03T01:20:17.041Z,71.40
2017-12-03T01:22:44.057Z,71.80
2017-12-03T01:25:11.001Z,72.40
2017-12-03T01:27:37.956Z,70.90
2017-12-03T01:30:05.241Z,70.60
2017-12-03T01:32:32.245Z,70.50
2017-12-03T01:34:59.129Z,70.60
2017-12-03T01:37:26.013Z,70.60
2017-12-03T01:39:52.985Z,71.10
2017-12-03T01:42:19.864Z,71.40
2017-12-03T01:44:46.748Z,71.50
2017-12-03T01:47:13.656Z,71.20
2017-12-03T01:49:40.537Z,70.90
2017-12-03T01:52:07.453Z,70.40
2017-12-03T01:54:34.338Z,70.30
2017-12-03T01:57:01.249Z,70.20
2017-12-03T01:59:28.151Z,69.90
2017-12-03T02:01:55.093Z,70.20
2017-12-03T02:04:22.003Z,70.50
2017-12-03T02:06:48.884Z,70.70
2017-12-03T02:09:15.878Z,70.20
2017-12-03T02:11:42.753Z,70.40
2017-12-03T02:14:09.669Z,70.50
2017-12-03T02:16:36.573Z,70.90
2017-12-03T02:19:03.494Z,71.30
2017-12-03T02:21:30.386Z,71.80
2017-12-03T02:23:57.661Z,72.50
2017-12-03T02:26:24.574Z,72.60
2017-12-03T02:28:51.877Z,73.10
2017-12-03T02:31:18.765Z,73.10
2017-12-03T02:33:45.713Z,73.20
2017-12-03T02:36:12.609Z,72.90
2017-12-03T02:38:39.517Z,73.20
2017-12-03T02:41:06.854Z,72.60
2017-12-03T02:43:33.734Z,72.60
2017-12-03T02:46:00.618Z,71.90
2017-12-03T02:48:27.587Z,72.80
2017-12-03T02:50:54.465Z,73.60
2017-12-03T02:53:21.371Z,74.00
2017-12-03T02:55:48.254Z,74.10
2017-12-03T02:58:15.165Z,73.80
2017-12-03T03:00:42.046Z,74.00
2017-12-03T03:03:08.924Z,74.00
2017-12-03T03:05:35.910Z,74.30
2017-12-03T03:08:02.798Z,74.20
2017-12-03T03:10:29.685Z,74.50
2017-12-03T03:12:56.585Z,74.50
2017-12-03T03:15:23.465Z,74.60
2017-12-03T03:17:50.378Z,74.60
2017-12-03T03:20:17.257Z,74.40
2017-12-03T03:22:44.165Z,74.20
2017-12-03T03:25:11.041Z,74.10
2017-12-03T03:27:37.954Z,73.90
2017-12-03T03:30:04.842Z,73.60
2017-12-03T03:32:31.808Z,73.50
2017-12-03T03:34:58.761Z,73.80
2017-12-03T03:37:26.038Z,73.20
2017-12-03T03:39:52.923Z,73.20
2017-12-03T03:42:19.833Z,73.10
2017-12-03T03:44:46.729Z,72.70
2017-12-03T03:47:13.692Z,72.10
2017-12-03T03:49:40.571Z,71.60
2017-12-03T03:52:07.486Z,71.60
2017-12-03T03:54:34.777Z,71.10
2017-12-03T03:57:01.657Z,71.00
2017-12-03T03:59:28.625Z,71.20
2017-12-03T04:01:55.517Z,71.50
2017-12-03T04:04:22.398Z,71.10
2017-12-03T04:06:49.304Z,71.20
2017-12-03T04:09:16.316Z,71.00
2017-12-03T04:11:43.212Z,71.20
2017-12-03T04:14:10.117Z,71.30
2017-12-03T04:16:37.398Z,70.90
2017-12-03T04:19:04.319Z,70.90
2017-12-03T04:21:31.597Z,71.00
2017-12-03T04:23:58.477Z,71.00
2017-12-03T04:26:25.389Z,71.30
2017-12-03T04:28:52.290Z,71.70
2017-12-03T04:31:19.174Z,72.00
2017-12-03T04:33:46.085Z,72.00
2017-12-03T04:36:12.970Z,71.70
2017-12-03T04:38:39.885Z,71.40
2017-12-03T04:41:07.193Z,72.20
2017-12-03T04:43:34.101Z,72.20
2017-12-03T04:46:01.398Z,72.50
2017-12-03T04:48:28.281Z,72.50
2017-12-03T04:50:55.619Z,72.60
2017-12-03T04:53:22.530Z,72.60
2017-12-03T04:55:49.417Z,72.80
2017-12-03T04:58:16.318Z,72.40
2017-12-03T05:00:43.222Z,71.90
2017-12-03T05:03:10.534Z,71.90
2017-12-03T05:05:37.450Z,71.90
2017-12-03T05:08:04.354Z,72.00
2017-12-03T05:10:31.273Z,71.90
2017-12-03T05:12:58.161Z,71.70
2017-12-03T05:15:25.457Z,71.90
2017-12-03T05:17:52.366Z,71.90
2017-12-03T05:20:19.746Z,72.30
2017-12-03T05:22:46.666Z,72.30
2017-12-03T05:25:13.557Z,72.50
2017-12-03T05:27:40.446Z,72.80
2017-12-03T05:30:07.762Z,73.00
2017-12-03T05:32:34.679Z,73.00
2017-12-03T05:35:01.566Z,73.20
2017-12-03T05:37:28.495Z,73.00
2017-12-03T05:39:55.384Z,72.70
2017-12-03T05:42:22.689Z,72.90
2017-12-03T05:44:49.721Z,72.90
2017-12-03T05:47:16.621Z,72.80
2017-12-03T05:49:43.546Z,72.60
2017-12-03T05:52:10.469Z,72.80
2017-12-03T05:54:37.358Z,72.90
2017-12-03T05:57:04.255Z,72.80
2017-12-03T05:59:31.162Z,72.70
2017-12-03T06:01:58.443Z,72.70
2017-12-03T06:04:25.353Z,72.70
2017-12-03T06:06:52.235Z,72.60
2017-12-03T06:09:19.147Z,72.70
2017-12-03T06:11:46.453Z,72.40
2017-12-03T06:14:13.344Z,72.40
2017-12-03T06:16:40.253Z,72.50
2017-12-03T06:19:07.139Z,71.90
2017-12-03T06:21:34.454Z,72.40
2017-12-03T06:24:01.406Z,72.50
2017-12-03T06:26:28.305Z,72.50
2017-12-03T06:28:55.614Z,72.70
2017-12-03T06:31:22.506Z,72.70
2017-12-03T06:33:49.397Z,72.50
2017-12-03T06:36:16.305Z,72.90
2017-12-03T06:38:43.233Z,73.30
2017-12-03T06:41:10.518Z,73.20
2017-12-03T06:43:37.421Z,73.20
2017-12-03T06:46:04.332Z,73.10
2017-12-03T06:48:31.226Z,73.70
2017-12-03T06:50:58.522Z,75.10
2017-12-03T06:53:25.429Z,75.10
2017-12-03T06:55:52.702Z,75.50
2017-12-03T06:58:19.610Z,75.50
2017-12-03T07:00:46.918Z,76.90
2017-12-03T07:03:13.801Z,76.90
2017-12-03T07:05:40.710Z,76.90
2017-12-03T07:08:07.598Z,77.70
2017-12-03T07:10:35.372Z,77.80
2017-12-03T07:13:02.657Z,77.90
2017-12-03T07:15:29.541Z,77.90
2017-12-03T07:17:56.454Z,77.70
2017-12-03T07:20:23.369Z,78.10
2017-12-03T07:22:50.657Z,78.30
2017-12-03T07:25:17.573Z,78.30
2017-12-03T07:27:44.866Z,78.20
2017-12-03T07:30:11.789Z,78.20
2017-12-03T07:32:38.807Z,77.70
2017-12-03T07:35:06.104Z,78.30
2017-12-03T07:37:32.993Z,78.30
2017-12-03T07:39:59.906Z,77.90
2017-12-03T07:42:26.834Z,78.60
2017-12-03T07:44:54.117Z,78.20
2017-12-03T07:47:21.001Z,78.20
2017-12-03T07:49:47.905Z,78.40
2017-12-03T07:52:14.818Z,78.40
2017-12-03T07:54:42.078Z,79.00
2017-12-03T07:57:08.981Z,79.10
2017-12-03T07:59:35.888Z,79.20
2017-12-03T08:02:02.794Z,79.50
2017-12-03T08:04:29.821Z,80.00
2017-12-03T08:06:56.717Z,80.10
2017-12-03T08:09:23.629Z,80.10
2017-12-03T08:11:50.942Z,80.20
2017-12-03T08:14:17.822Z,80.30
2017-12-03T08:16:45.278Z,80.10
2017-12-03T08:19:12.581Z,80.10
2017-12-03T08:21:39.496Z,80.10
2017-12-03T08:24:06.391Z,80.20
2017-12-03T08:26:33.305Z,80.50
2017-12-03T08:29:00.233Z,81.30
2017-12-03T08:31:27.125Z,81.20
2017-12-03T08:33:54.046Z,81.30
2017-12-03T08:36:20.933Z,81.20
2017-12-03T08:38:47.817Z,81.00
2017-12-03T08:41:14.776Z,81.00
2017-12-03T08:43:41.653Z,81.00
2017-12-03T08:46:08.574Z,81.20
2017-12-03T08:48:35.462Z,81.20
2017-12-03T08:51:02.377Z,81.40
2017-12-03T08:53:29.277Z,81.70
2017-12-03T08:55:56.582Z,81.80
2017-12-03T08:58:23.497Z,81.80
2017-12-03T09:00:50.422Z,81.50
2017-12-03T09:03:17.709Z,81.70
2017-12-03T09:05:44.589Z,81.70
2017-12-03T09:08:11.511Z,81.40
2017-12-03T09:10:38.400Z,81.30
2017-12-03T09:13:05.291Z,81.30
2017-12-03T09:15:32.193Z,81.30
2017-12-03T09:17:59.086Z,81.10
2017-12-03T09:20:26.013Z,81.10
2017-12-03T09:22:52.925Z,81.00
2017-12-03T09:25:19.813Z,81.10
2017-12-03T09:27:46.705Z,81.20
2017-12-03T09:30:13.613Z,81.40
2017-12-03T09:32:40.525Z,81.70
2017-12-03T09:35:07.841Z,81.80
2017-12-03T09:37:34.749Z,81.80
2017-12-03T09:40:01.659Z,82.60
2017-12-03T09:42:28.553Z,82.70
2017-12-03T09:44:55.466Z,83.10
2017-12-03T09:47:22.374Z,83.00
2017-12-03T09:49:49.282Z,82.90
2017-12-03T09:52:16.193Z,82.50
2017-12-03T09:54:43.485Z,81.90
2017-12-03T09:57:10.398Z,81.90
2017-12-03T09:59:37.680Z,81.90
2017-12-03T10:02:04.592Z,81.90
2017-12-03T10:04:31.873Z,81.70
2017-12-03T10:06:58.785Z,81.70
2017-12-03T10:09:26.070Z,81.90
2017-12-03T10:11:52.977Z,81.90
2017-12-03T10:14:19.892Z,81.70
2017-12-03T10:16:46.791Z,81.90
2017-12-03T10:19:14.093Z,82.00
2017-12-03T10:21:41.003Z,82.00
2017-12-03T10:24:07.953Z,82.00
2017-12-03T10:26:34.865Z,82.00
2017-12-03T10:29:02.193Z,82.70
2017-12-03T10:31:29.098Z,82.70
2017-12-03T10:33:56.018Z,82.90
2017-12-03T10:36:23.331Z,82.90
2017-12-03T10:38:50.250Z,82.90
2017-12-03T10:41:17.157Z,82.80
2017-12-03T10:43:44.100Z,82.80
2017-12-03T10:46:10.998Z,82.60
2017-12-03T10:48:37.921Z,82.60
2017-12-03T10:51:04.837Z,82.30
2017-12-03T10:53:31.791Z,82.20
2017-12-03T10:55:59.074Z,82.40
2017-12-03T10:58:26.004Z,82.40
2017-12-03T11:00:53.288Z,82.40
2017-12-03T11:03:20.179Z,82.40
2017-12-03T11:05:47.120Z,82.50
2017-12-03T11:08:14.057Z,82.60
2017-12-03T11:10:41.374Z,82.40
2017-12-03T11:13:08.264Z,82.60
2017-12-03T11:15:35.190Z,82.20
2017-12-03T11:18:02.085Z,82.20
2017-12-03T11:20:29.381Z,82.30
2017-12-03T11:22:56.295Z,82.30
2017-12-03T11:25:23.573Z,82.70
2017-12-03T11:27:50.497Z,82.70
2017-12-03T11:30:17.388Z,83.20
2017-12-03T11:32:44.277Z,83.40
2017-12-03T11:35:11.588Z,82.50
2017-12-03T11:37:38.490Z,82.50
2017-12-03T11:40:05.438Z,82.60
2017-12-03T11:42:32.365Z,82.70
2017-12-03T11:44:59.688Z,83.30
2017-12-03T11:47:26.657Z,83.30
2017-12-03T11:49:53.592Z,83.00
2017-12-03T11:52:20.547Z,83.00
2017-12-03T11:54:47.426Z,82.70
2017-12-03T11:57:14.437Z,82.60
2017-12-03T11:59:41.356Z,82.70
2017-12-03T12:02:08.334Z,82.90
2017-12-03T12:04:35.246Z,83.20
2017-12-03T12:07:02.227Z,82.70
2017-12-03T12:09:29.169Z,82.60
2017-12-03T12:11:56.048Z,82.60
2017-12-03T12:14:22.944Z,82.90
2017-12-03T12:16:49.905Z,83.20
2017-12-03T12:19:16.810Z,83.10
2017-12-03T12:21:43.721Z,82.60
2017-12-03T12:24:10.686Z,82.50
2017-12-03T12:26:37.691Z,82.30
2017-12-03T12:29:04.635Z,82.50
2017-12-03T12:31:31.595Z,82.20
2017-12-03T12:33:58.941Z,81.80
2017-12-03T12:36:25.826Z,81.80
2017-12-03T12:38:52.754Z,81.80
2017-12-03T12:41:20.113Z,82.60
2017-12-03T12:43:47.483Z,82.60
2017-12-03T12:46:14.493Z,82.60
2017-12-03T12:48:41.387Z,82.60
2017-12-03T12:51:08.674Z,82.20
2017-12-03T12:53:35.626Z,82.20
2017-12-03T12:56:02.509Z,82.20
2017-12-03T12:58:29.431Z,82.20
2017-12-03T13:00:56.379Z,82.30
2017-12-03T13:03:23.322Z,82.30
2017-12-03T13:05:50.213Z,82.30
2017-12-03T13:08:17.130Z,82.00
2017-12-03T13:10:44.471Z,82.70
2017-12-03T13:13:11.517Z,82.70
2017-12-03T13:15:38.410Z,82.60
2017-12-03T13:18:05.331Z,82.80
2017-12-03T13:20:32.620Z,83.20
2017-12-03T13:22:59.605Z,83.20
2017-12-03T13:25:26.542Z,83.00
2017-12-03T13:27:53.457Z,83.10
2017-12-03T13:30:20.450Z,83.30
2017-12-03T13:32:47.365Z,83.00
2017-12-03T13:35:14.343Z,83.10
2017-12-03T13:37:41.286Z,83.70
2017-12-03T13:40:08.170Z,83.70
2017-12-03T13:42:35.053Z,83.40
2017-12-03T13:45:02.026Z,83.20
2017-12-03T13:47:28.970Z,83.40
2017-12-03T13:49:55.890Z,83.50
2017-12-03T13:52:22.965Z,83.00
2017-12-03T13:54:49.850Z,82.50
2017-12-03T13:57:16.767Z,82.70
2017-12-03T13:59:44.133Z,82.70
2017-12-03T14:02:11.422Z,82.80
2017-12-03T14:04:38.309Z,82.80
2017-12-03T14:07:05.237Z,83.00
2017-12-03T14:09:32.124Z,83.10
2017-12-03T14:11:59.435Z,82.70
2017-12-03T14:14:26.317Z,82.70
2017-12-03T14:16:53.625Z,82.80
2017-12-03T14:19:20.543Z,82.80
2017-12-03T14:21:47.442Z,82.90
2017-12-03T14:24:14.342Z,83.00
2017-12-03T14:26:41.257Z,83.30
2017-12-03T14:29:08.551Z,83.40
2017-12-03T14:31:35.547Z,83.40
2017-12-03T14:34:02.499Z,83.20
2017-12-03T14:36:29.851Z,83.20
2017-12-03T14:38:56.767Z,83.20
2017-12-03T14:41:23.819Z,83.30
2017-12-03T14:43:51.143Z,83.20
2017-12-03T14:46:18.057Z,83.20
2017-12-03T14:48:45.406Z,82.70
2017-12-03T14:51:12.809Z,82.80
2017-12-03T14:53:39.806Z,82.80
2017-12-03T14:56:06.720Z,82.80
2017-12-03T14:58:33.758Z,83.00
2017-12-03T15:01:00.877Z,82.80
2017-12-03T15:03:27.792Z,83.10
2017-12-03T15:05:54.681Z,83.40
2017-12-03T15:08:21.586Z,83.60
2017-12-03T15:10:48.499Z,83.50
2017-12-03T15:13:15.387Z,83.50
2017-12-03T15:15:42.695Z,83.50
2017-12-03T15:18:09.586Z,83.50
2017-12-03T15:20:36.545Z,83.90
2017-12-03T15:23:03.438Z,84.00
2017-12-03T15:25:30.486Z,84.20
2017-12-03T15:27:57.457Z,84.30
2017-12-03T15:30:24.394Z,84.20
2017-12-03T15:32:51.293Z,84.20
2017-12-03T15:35:18.214Z,84.00
2017-12-03T15:37:46.005Z,84.00
2017-12-03T15:40:12.975Z,84.00
2017-12-03T15:42:39.857Z,84.20
2017-12-03T15:45:06.780Z,84.20
2017-12-03T15:47:33.693Z,84.20
2017-12-03T15:50:00.877Z,84.80
2017-12-03T15:52:27.813Z,84.70
2017-12-03T15:54:54.702Z,84.40
2017-12-03T15:57:21.994Z,84.80
2017-12-03T15:59:49.019Z,84.80
2017-12-03T16:02:15.928Z,85.10
2017-12-03T16:04:42.889Z,85.20
2017-12-03T16:07:10.193Z,84.70
2017-12-03T16:09:37.105Z,84.70
2017-12-03T16:12:04.422Z,84.90
2017-12-03T16:14:31.310Z,84.90
2017-12-03T16:16:58.742Z,85.00
2017-12-03T16:19:25.633Z,85.00
2017-12-03T16:21:52.525Z,84.90
2017-12-03T16:24:19.831Z,84.60
2017-12-03T16:26:46.718Z,84.50
2017-12-03T16:29:13.597Z,84.40
2017-12-03T16:31:40.521Z,84.40
2017-12-03T16:34:07.469Z,84.20
2017-12-03T16:36:34.361Z,84.10
2017-12-03T16:39:01.274Z,83.80
2017-12-03T16:41:28.583Z,83.90
2017-12-03T16:43:55.503Z,83.90
2017-12-03T16:46:22.396Z,83.90
2017-12-03T16:48:49.294Z,83.90
2017-12-03T16:51:16.213Z,84.10
2017-12-03T16:53:43.496Z,84.50
2017-12-03T16:56:10.602Z,84.50
2017-12-03T16:58:37.507Z,84.50
2017-12-03T17:01:04.745Z,84.20
2017-12-03T17:03:31.658Z,84.40
2017-12-03T17:05:58.952Z,85.00
2017-12-03T17:08:25.933Z,85.00
2017-12-03T17:10:52.821Z,85.10
2017-12-03T17:13:19.749Z,85.00
2017-12-03T17:15:47.120Z,84.40
2017-12-03T17:18:14.017Z,84.40
2017-12-03T17:20:40.954Z,84.50
2017-12-03T17:23:07.849Z,84.20
2017-12-03T17:25:35.178Z,84.20
2017-12-03T17:28:02.143Z,84.20
2017-12-03T17:30:29.446Z,84.10
2017-12-03T17:32:56.342Z,84.10
2017-12-03T17:35:23.661Z,84.10
2017-12-03T17:37:50.567Z,84.10
2017-12-03T17:40:17.457Z,83.90
2017-12-03T17:42:44.448Z,83.90
2017-12-03T17:45:11.762Z,83.60
2017-12-03T17:47:38.653Z,83.60
2017-12-03T17:50:05.969Z,84.30
2017-12-03T17:52:32.862Z,84.30
2017-12-03T17:54:59.881Z,84.40
2017-12-03T17:57:26.830Z,84.10
2017-12-03T17:59:54.160Z,84.00
2017-12-03T18:02:21.241Z,84.00
2017-12-03T18:04:48.857Z,83.90
2017-12-03T18:07:15.854Z,83.90
2017-12-03T18:09:43.193Z,84.00
2017-12-03T18:12:10.151Z,84.00
2017-12-03T18:14:37.466Z,83.90
2017-12-03T18:17:04.446Z,83.90
2017-12-03T18:19:31.488Z,83.80
2017-12-03T18:21:58.582Z,83.80
2017-12-03T18:24:25.525Z,83.90
2017-12-03T18:26:52.415Z,83.60
2017-12-03T18:29:19.326Z,83.20
2017-12-03T18:31:46.464Z,83.00
2017-12-03T18:34:13.377Z,83.10
2017-12-03T18:36:40.326Z,83.30
2017-12-03T18:39:07.224Z,83.10
2017-12-03T18:41:34.121Z,82.90
2017-12-03T18:44:01.466Z,83.10
2017-12-03T18:46:28.408Z,83.10
2017-12-03T18:48:55.361Z,83.10
2017-12-03T18:51:22.286Z,82.90
2017-12-03T18:53:49.198Z,82.70
2017-12-03T18:56:16.105Z,82.80
2017-12-03T18:58:43.385Z,83.10
2017-12-03T19:01:10.393Z,83.10
2017-12-03T19:03:37.409Z,83.00
2017-12-03T19:06:04.465Z,83.00
2017-12-03T19:08:31.445Z,83.20
2017-12-03T19:10:58.338Z,83.10
2017-12-03T19:13:25.261Z,83.10
2017-12-03T19:15:52.149Z,82.90
2017-12-03T19:18:19.029Z,82.70
2017-12-03T19:20:46.379Z,82.30
2017-12-03T19:23:13.372Z,82.30
2017-12-03T19:25:40.254Z,82.60
2017-12-03T19:28:07.181Z,82.30
2017-12-03T19:30:34.094Z,82.20
2017-12-03T19:33:01.002Z,82.40
2017-12-03T19:35:27.997Z,82.50
2017-12-03T19:37:54.909Z,82.50
2017-12-03T19:40:22.200Z,82.60
2017-12-03T19:42:49.218Z,82.60
2017-12-03T19:45:16.494Z,82.40
2017-12-03T19:47:43.424Z,82.40
2017-12-03T19:50:10.743Z,82.20
2017-12-03T19:52:37.625Z,82.20
2017-12-03T19:55:04.562Z,82.20
2017-12-03T19:57:31.896Z,81.90
2017-12-03T19:59:58.793Z,81.90
2017-12-03T20:02:25.678Z,81.90
2017-12-03T20:04:52.589Z,81.80
2017-12-03T20:07:19.490Z,82.00
2017-12-03T20:09:46.406Z,82.20
2017-12-03T20:12:13.299Z,82.20
2017-12-03T20:14:40.625Z,82.60
2017-12-03T20:17:07.510Z,82.60
2017-12-03T20:19:34.396Z,82.70
2017-12-03T20:22:01.307Z,82.70
2017-12-03T20:24:28.189Z,82.90
2017-12-03T20:26:55.106Z,83.00
2017-12-03T20:29:22.032Z,83.30
2017-12-03T20:31:48.925Z,83.40
2017-12-03T20:34:15.809Z,83.20
2017-12-03T20:36:43.136Z,83.40
2017-12-03T20:39:10.027Z,83.40
2017-12-03T20:41:36.917Z,83.20
2017-12-03T20:44:03.836Z,83.10
2017-12-03T20:46:30.749Z,82.90
2017-12-03T20:48:58.059Z,82.90
2017-12-03T20:51:24.954Z,82.90
2017-12-03T20:53:52.270Z,83.10
2017-12-03T20:56:19.157Z,83.10
2017-12-03T20:58:46.446Z,82.80
2017-12-03T21:01:13.438Z,82.80
2017-12-03T21:03:40.353Z,82.80
2017-12-03T21:06:07.273Z,82.80
2017-12-03T21:08:34.157Z,82.80
2017-12-03T21:11:01.048Z,82.80
2017-12-03T21:13:27.999Z,82.60
2017-12-03T21:15:54.912Z,82.50
2017-12-03T21:18:22.199Z,82.30
2017-12-03T21:20:49.105Z,82.30
2017-12-03T21:23:16.098Z,82.40
2017-12-03T21:25:43.010Z,82.80
2017-12-03T21:28:10.289Z,82.50
2017-12-03T21:30:37.188Z,82.50
2017-12-03T21:33:04.120Z,82.80
2017-12-03T21:35:31.004Z,83.00
2017-12-03T21:37:58.293Z,82.90
2017-12-03T21:40:25.207Z,82.90
2017-12-03T21:42:52.504Z,82.60
2017-12-03T21:45:19.421Z,82.60
2017-12-03T21:47:46.349Z,83.00
2017-12-03T21:50:13.638Z,82.40
2017-12-03T21:52:40.543Z,82.30
2017-12-03T21:55:07.466Z,82.00
2017-12-03T21:57:34.361Z,82.40
2017-12-03T22:00:01.380Z,82.40
2017-12-03T22:02:28.289Z,82.30
2017-12-03T22:04:55.270Z,82.30
2017-12-03T22:07:22.217Z,82.30
2017-12-03T22:09:49.510Z,82.80
2017-12-03T22:12:16.458Z,82.80
2017-12-03T22:14:43.367Z,82.60
2017-12-03T22:17:10.659Z,82.80
2017-12-03T22:19:37.665Z,82.80
2017-12-03T22:22:04.566Z,82.80
2017-12-03T22:24:31.490Z,82.80
2017-12-03T22:26:58.382Z,83.00
2017-12-03T22:29:25.351Z,83.00
2017-12-03T22:31:52.238Z,82.80
2017-12-03T22:34:19.245Z,83.10
2017-12-03T22:36:46.534Z,83.10
2017-12-03T22:39:13.470Z,83.10
2017-12-03T22:41:40.497Z,82.90
2017-12-03T22:44:07.774Z,82.80
2017-12-03T22:46:34.662Z,82.80
2017-12-03T22:49:01.643Z,83.00
2017-12-03T22:51:28.997Z,82.50
2017-12-03T22:53:56.292Z,82.90
2017-12-03T22:56:23.201Z,82.90
2017-12-03T22:58:50.590Z,82.60
2017-12-03T23:01:17.501Z,82.60
2017-12-03T23:03:44.823Z,82.80
2017-12-03T23:06:11.701Z,82.80
2017-12-03T23:08:39.009Z,82.90
2017-12-03T23:11:05.997Z,82.90
2017-12-03T23:13:32.923Z,83.20
2017-12-03T23:15:59.890Z,83.10
2017-12-03T23:18:26.790Z,82.90
2017-12-03T23:20:53.785Z,83.10
2017-12-03T23:23:21.081Z,83.20
2017-12-03T23:25:47.994Z,83.20
2017-12-03T23:28:15.330Z,83.30
2017-12-03T23:30:42.250Z,83.30
2017-12-03T23:33:09.125Z,83.40
2017-12-03T23:35:36.425Z,83.50
2017-12-03T23:38:03.350Z,83.40
2017-12-03T23:40:30.625Z,83.50
2017-12-03T23:42:57.558Z,83.50
2017-12-03T23:45:24.469Z,83.60
2017-12-03T23:47:51.429Z,83.40
2017-12-03T23:50:18.737Z,83.50
2017-12-03T23:52:45.622Z,83.50
2017-12-03T23:55:12.537Z,83.30
2017-12-03T23:57:39.422Z,83.30
